createdAt,value
2022-12-02T00:01:27.007Z,4.85
2022-12-02T00:03:57.605Z,4.35
2022-12-02T00:06:30.888Z,4.50
2022-12-02T00:09:07.574Z,4.75
2022-12-02T00:11:36.586Z,4.75
2022-12-02T00:14:18.015Z,4.18
2022-12-02T00:16:48.827Z,4.68
2022-12-02T00:19:18.270Z,4.07
2022-12-02T00:21:50.085Z,4.35
2022-12-02T00:24:20.298Z,3.80
2022-12-02T00:26:49.673Z,4.07
2022-12-02T00:29:18.416Z,4.55
2022-12-02T00:31:49.365Z,4.22
2022-12-02T00:34:18.545Z,4.18
2022-12-02T00:36:47.619Z,4.63
2022-12-02T00:39:17.609Z,4.25
2022-12-02T00:41:46.854Z,3.92
2022-12-02T00:44:45.070Z,4.47
2022-12-02T00:47:15.312Z,4.25
2022-12-02T00:49:44.206Z,4.60
2022-12-02T00:52:13.812Z,3.78
2022-12-02T00:54:43.193Z,4.38
2022-12-02T00:57:12.363Z,5.18
2022-12-02T00:59:41.424Z,4.20
2022-12-02T01:02:10.548Z,4.90
2022-12-02T01:04:40.867Z,5.20
2022-12-02T01:07:11.072Z,4.80
2022-12-02T01:09:40.458Z,4.57
2022-12-02T01:12:09.261Z,4.38
2022-12-02T01:14:38.175Z,4.72
2022-12-02T01:17:07.027Z,4.53
2022-12-02T01:19:36.147Z,4.50
2022-12-02T01:22:08.479Z,4.53
2022-12-02T01:24:37.528Z,5.28
2022-12-02T01:27:06.719Z,4.75
2022-12-02T01:29:35.603Z,4.82
2022-12-02T01:32:04.737Z,3.97
2022-12-02T01:34:34.629Z,4.95
2022-12-02T01:37:03.635Z,4.00
2022-12-02T01:39:33.936Z,4.03
2022-12-02T01:42:02.860Z,4.05
2022-12-02T01:44:32.382Z,4.57
2022-12-02T01:47:01.768Z,4.43
2022-12-02T01:49:31.049Z,4.07
2022-12-02T01:51:59.918Z,3.70
2022-12-02T01:54:29.970Z,4.07
2022-12-02T01:57:00.193Z,3.78
2022-12-02T01:59:29.446Z,4.30
2022-12-02T02:01:58.688Z,4.22
2022-12-02T02:04:27.697Z,4.32
2022-12-02T02:06:56.824Z,3.58
2022-12-02T02:09:26.164Z,3.22
2022-12-02T02:11:57.403Z,3.55
2022-12-02T02:14:27.630Z,3.92
2022-12-02T02:16:57.098Z,4.57
2022-12-02T02:19:26.792Z,4.40
2022-12-02T02:21:57.688Z,3.95
2022-12-02T02:24:29.752Z,5.03
2022-12-02T02:26:58.837Z,4.03
2022-12-02T02:29:28.441Z,3.75
2022-12-02T02:31:57.926Z,3.90
2022-12-02T02:34:27.524Z,4.05
2022-12-02T02:36:56.976Z,3.63
2022-12-02T02:39:26.442Z,3.47
2022-12-02T02:41:58.738Z,3.78
2022-12-02T02:44:29.731Z,3.53
2022-12-02T02:46:59.718Z,3.22
2022-12-02T02:49:30.466Z,3.15
2022-12-02T02:51:59.619Z,4.13
2022-12-02T02:54:28.921Z,4.30
2022-12-02T02:56:59.684Z,3.70
2022-12-02T02:59:28.651Z,3.72
2022-12-02T03:01:58.277Z,3.78
2022-12-02T03:04:27.827Z,4.35
2022-12-02T03:06:56.922Z,3.90
2022-12-02T03:09:26.884Z,3.85
2022-12-02T03:11:57.932Z,4.07
2022-12-02T03:14:28.980Z,3.58
2022-12-02T03:17:00.515Z,3.35
2022-12-02T03:19:31.414Z,3.25
2022-12-02T03:22:01.520Z,3.40
2022-12-02T03:24:32.913Z,3.83
2022-12-02T03:27:02.864Z,3.67
2022-12-02T03:29:34.578Z,4.00
2022-12-02T03:32:04.628Z,4.05
2022-12-02T03:34:34.036Z,3.67
2022-12-02T03:37:02.926Z,4.38
2022-12-02T03:39:31.958Z,3.35
2022-12-02T03:42:01.458Z,3.72
2022-12-02T03:44:30.506Z,4.13
2022-12-02T03:47:00.840Z,2.88
2022-12-02T03:49:30.352Z,3.95
2022-12-02T03:51:59.171Z,4.25
2022-12-02T03:54:28.408Z,3.78
2022-12-02T03:56:57.334Z,3.95
2022-12-02T03:59:29.094Z,3.53
2022-12-02T04:01:58.077Z,3.75
2022-12-02T04:04:28.652Z,3.70
2022-12-02T04:06:57.905Z,3.85
2022-12-02T04:09:27.150Z,4.10
2022-12-02T04:11:56.198Z,4.00
2022-12-02T04:14:25.290Z,3.85
2022-12-02T04:16:54.182Z,4.82
2022-12-02T04:19:23.067Z,4.28
2022-12-02T04:21:53.353Z,3.13
2022-12-02T04:24:22.148Z,3.80
2022-12-02T04:26:51.232Z,3.90
2022-12-02T04:29:20.242Z,3.65
2022-12-02T04:31:49.105Z,4.35
2022-12-02T04:34:18.118Z,4.60
2022-12-02T04:36:46.992Z,4.10
2022-12-02T04:39:17.374Z,3.95
2022-12-02T04:41:46.464Z,3.45
2022-12-02T04:44:17.866Z,4.35
2022-12-02T04:46:47.112Z,3.75
2022-12-02T04:49:16.116Z,3.78
2022-12-02T04:51:45.080Z,3.92
2022-12-02T04:54:13.894Z,3.83
2022-12-02T04:56:44.054Z,4.07
2022-12-02T04:59:13.132Z,4.47
2022-12-02T05:01:41.850Z,4.05
2022-12-02T05:04:10.704Z,4.25
2022-12-02T05:06:40.147Z,3.58
2022-12-02T05:09:09.177Z,3.65
2022-12-02T05:11:38.165Z,4.07
2022-12-02T05:14:08.236Z,3.97
2022-12-02T05:16:37.180Z,4.97
2022-12-02T05:19:06.174Z,3.70
2022-12-02T05:21:35.541Z,4.65
2022-12-02T05:24:04.664Z,4.10
2022-12-02T05:26:33.923Z,4.28
2022-12-02T05:29:03.995Z,4.07
2022-12-02T05:31:34.511Z,4.10
2022-12-02T05:34:03.903Z,4.40
2022-12-02T05:36:32.859Z,4.13
2022-12-02T05:39:01.694Z,4.25
2022-12-02T05:41:30.719Z,4.30
2022-12-02T05:44:10.145Z,4.10
2022-12-02T05:46:40.871Z,4.38
2022-12-02T05:49:18.025Z,4.65
2022-12-02T05:51:56.596Z,4.30
2022-12-02T05:54:27.829Z,5.28
2022-12-02T05:56:58.567Z,4.53
2022-12-02T05:59:30.503Z,4.45
2022-12-02T06:02:03.230Z,4.90
2022-12-02T06:05:29.470Z,3.70
2022-12-02T06:08:11.925Z,3.97
2022-12-02T06:10:44.561Z,5.40
2022-12-02T06:13:20.786Z,4.30
2022-12-02T06:15:52.963Z,4.60
2022-12-02T06:18:26.660Z,4.45
2022-12-02T06:21:00.768Z,4.90
2022-12-02T06:23:32.709Z,6.55
2022-12-02T06:26:01.916Z,3.92
2022-12-02T06:28:32.341Z,4.78
2022-12-02T06:31:10.672Z,4.25
2022-12-02T06:33:41.596Z,5.30
2022-12-02T06:36:14.890Z,4.80
2022-12-02T06:38:50.384Z,4.50
2022-12-02T06:41:24.715Z,4.38
2022-12-02T06:44:19.855Z,4.65
2022-12-02T06:46:50.172Z,4.53
2022-12-02T06:49:23.166Z,4.90
2022-12-02T06:51:57.388Z,4.53
2022-12-02T06:54:30.234Z,4.00
2022-12-02T06:57:02.449Z,5.07
2022-12-02T06:59:32.745Z,7.53
2022-12-02T07:02:15.657Z,6.55
2022-12-02T07:04:51.266Z,6.55
2022-12-02T07:07:22.583Z,4.53
2022-12-02T07:09:55.983Z,4.63
2022-12-02T07:12:32.852Z,4.68
2022-12-02T07:15:18.233Z,4.97
2022-12-02T07:17:47.445Z,4.53
2022-12-02T07:20:40.895Z,5.35
2022-12-02T07:23:17.688Z,5.05
2022-12-02T07:25:54.457Z,4.80
2022-12-02T07:28:30.097Z,5.50
2022-12-02T07:31:04.173Z,4.90
2022-12-02T07:33:34.133Z,4.88
2022-12-02T07:36:04.663Z,4.72
2022-12-02T07:39:04.657Z,4.93
2022-12-02T07:41:25.305Z,5.70
2022-12-02T07:43:55.605Z,5.82
2022-12-02T07:46:24.609Z,5.45
2022-12-02T07:48:57.119Z,4.50
2022-12-02T07:51:28.026Z,5.27
2022-12-02T07:53:58.341Z,5.40
2022-12-02T07:56:29.946Z,4.65
2022-12-02T07:59:12.075Z,5.18
2022-12-02T08:01:42.309Z,4.80
2022-12-02T08:04:11.678Z,5.28
2022-12-02T08:06:42.053Z,4.50
2022-12-02T08:09:11.736Z,4.72
2022-12-02T08:11:40.870Z,4.85
2022-12-02T08:14:09.871Z,5.60
2022-12-02T08:16:39.253Z,5.13
2022-12-02T08:19:08.618Z,6.00
2022-12-02T08:21:37.864Z,5.15
2022-12-02T08:24:08.802Z,4.53
2022-12-02T08:26:38.042Z,4.97
2022-12-02T08:29:07.542Z,5.25
2022-12-02T08:31:37.012Z,4.80
2022-12-02T08:34:07.620Z,5.47
2022-12-02T08:36:37.101Z,5.93
2022-12-02T08:39:08.179Z,5.20
2022-12-02T08:41:38.711Z,5.97
2022-12-02T08:44:08.220Z,5.80
2022-12-02T08:46:38.366Z,5.78
2022-12-02T08:49:08.293Z,6.03
2022-12-02T08:51:37.544Z,5.72
2022-12-02T08:54:08.463Z,5.07
2022-12-02T08:56:38.137Z,5.50
2022-12-02T08:59:07.171Z,5.85
2022-12-02T09:01:36.940Z,5.20
2022-12-02T09:04:06.461Z,6.25
2022-12-02T09:06:36.450Z,6.47
2022-12-02T09:09:06.565Z,6.72
2022-12-02T09:11:37.493Z,5.63
2022-12-02T09:14:06.792Z,5.47
2022-12-02T09:16:36.261Z,4.82
2022-12-02T09:19:05.584Z,5.35
2022-12-02T09:21:34.522Z,5.70
2022-12-02T09:24:03.382Z,6.00
2022-12-02T09:26:32.813Z,5.28
2022-12-02T09:29:03.158Z,5.15
2022-12-02T09:31:32.539Z,4.57
2022-12-02T09:34:01.699Z,4.72
2022-12-02T09:36:30.635Z,4.57
2022-12-02T09:39:00.458Z,4.78
2022-12-02T09:41:29.952Z,4.93
2022-12-02T09:43:59.382Z,3.83
2022-12-02T09:46:30.921Z,4.57
2022-12-02T09:49:03.883Z,3.97
2022-12-02T09:51:34.466Z,5.50
2022-12-02T09:54:05.061Z,4.18
2022-12-02T09:56:34.203Z,5.80
2022-12-02T09:59:13.002Z,4.10
2022-12-02T10:01:45.403Z,4.85
2022-12-02T10:04:18.686Z,4.65
2022-12-02T10:06:48.205Z,4.68
2022-12-02T13:20:05.875Z,7.45
2022-12-02T13:22:35.826Z,6.85
2022-12-02T13:25:05.763Z,6.13
2022-12-02T13:27:35.220Z,5.60
2022-12-02T13:30:04.898Z,5.78
2022-12-02T13:32:33.917Z,5.82
2022-12-02T13:35:04.964Z,5.97
2022-12-02T13:37:34.109Z,5.93
2022-12-02T13:40:03.537Z,6.97
2022-12-02T13:42:32.382Z,5.47
2022-12-02T13:45:01.583Z,5.18
2022-12-02T13:47:32.615Z,6.38
2022-12-02T13:50:01.909Z,5.63
2022-12-02T13:52:32.365Z,5.47
2022-12-02T13:55:01.617Z,5.63
2022-12-02T13:57:30.882Z,6.28
2022-12-02T13:59:59.955Z,7.00
2022-12-02T16:08:22.691Z,6.50
2022-12-02T16:10:54.769Z,5.80
2022-12-02T16:13:25.215Z,6.97
2022-12-02T16:16:06.644Z,6.78
2022-12-02T16:18:38.609Z,7.00
2022-12-02T16:21:14.904Z,6.60
2022-12-02T16:23:45.975Z,5.65
2022-12-02T16:26:16.333Z,5.70
2022-12-02T16:28:50.664Z,5.50
2022-12-02T16:31:22.509Z,6.15
2022-12-02T16:33:52.086Z,6.28
2022-12-02T16:36:22.071Z,7.45
2022-12-02T16:38:56.807Z,6.57
2022-12-02T16:41:29.109Z,7.50
2022-12-02T16:44:05.926Z,8.13
2022-12-02T16:46:37.168Z,9.07
2022-12-02T16:49:30.032Z,9.05
2022-12-02T16:52:35.384Z,9.85
2022-12-02T16:55:13.369Z,8.98
2022-12-02T16:57:47.817Z,9.40
2022-12-02T17:00:18.033Z,9.38
2022-12-02T17:02:47.736Z,10.15
2022-12-02T17:05:17.970Z,9.65
2022-12-02T17:07:51.665Z,10.25
2022-12-02T17:10:28.145Z,10.30
2022-12-02T17:13:00.737Z,9.05
2022-12-02T17:15:31.030Z,9.50
2022-12-02T17:18:01.316Z,10.05
2022-12-02T17:20:34.646Z,10.43
2022-12-02T17:23:06.320Z,8.68
2022-12-02T17:28:21.423Z,8.70
2022-12-02T17:31:00.077Z,8.30
2022-12-02T17:33:34.442Z,8.90
2022-12-02T17:36:08.201Z,9.13
2022-12-02T17:38:56.096Z,9.80
2022-12-02T17:41:30.548Z,8.38
2022-12-02T17:44:11.282Z,8.77
2022-12-02T17:46:45.178Z,7.90
2022-12-02T17:49:17.693Z,8.85
2022-12-02T17:52:06.700Z,9.30
2022-12-02T17:54:58.667Z,9.55
2022-12-02T17:57:34.412Z,9.25
2022-12-02T18:00:05.923Z,9.60
2022-12-02T18:02:35.860Z,8.40
2022-12-02T18:05:08.518Z,9.80
2022-12-02T18:07:38.030Z,8.43
2022-12-02T18:10:09.317Z,9.23
2022-12-02T18:12:40.090Z,10.20
2022-12-02T18:15:14.149Z,9.27
2022-12-02T18:17:46.052Z,9.50
2022-12-02T18:20:17.632Z,11.30
2022-12-02T18:22:51.711Z,9.77
2022-12-02T18:25:23.226Z,11.18
2022-12-02T18:27:54.728Z,10.55
2022-12-02T18:30:26.352Z,12.57
2022-12-02T18:32:59.119Z,11.52
2022-12-02T18:35:29.892Z,10.65
2022-12-02T18:38:00.418Z,12.10
2022-12-02T18:40:35.051Z,11.13
2022-12-02T18:43:21.601Z,11.30
2022-12-02T18:45:52.035Z,10.02
2022-12-02T18:48:24.974Z,9.88
2022-12-02T18:50:54.251Z,8.87
2022-12-02T18:53:24.274Z,9.10
2022-12-02T18:55:54.130Z,9.30
2022-12-02T18:58:28.121Z,10.90
2022-12-02T19:03:27.079Z,8.98
2022-12-02T19:06:00.747Z,9.50
2022-12-02T19:08:30.951Z,8.98
2022-12-02T19:11:03.308Z,9.52
2022-12-02T19:13:34.614Z,9.50
2022-12-02T19:16:04.809Z,8.77
2022-12-02T19:18:36.900Z,9.32
2022-12-02T19:21:06.938Z,8.63
2022-12-02T19:23:39.032Z,9.20
2022-12-02T19:26:10.491Z,10.00
2022-12-02T19:28:41.740Z,12.05
2022-12-02T19:31:10.870Z,12.80
2022-12-02T19:33:40.935Z,11.93
2022-12-02T19:36:14.070Z,12.85
2022-12-02T19:38:53.553Z,12.60
2022-12-02T19:41:23.453Z,10.35
2022-12-02T19:43:59.589Z,10.98
2022-12-02T19:46:43.593Z,11.50
2022-12-02T19:49:13.393Z,11.65
2022-12-02T19:52:06.394Z,11.60
2022-12-02T19:54:37.533Z,10.50
2022-12-02T19:57:07.162Z,10.80
2022-12-02T19:59:40.132Z,11.10
2022-12-02T20:02:16.223Z,9.85
2022-12-02T20:04:50.921Z,8.82
2022-12-02T20:07:22.841Z,7.90
2022-12-02T20:09:56.925Z,6.80
2022-12-02T20:12:29.121Z,6.13
2022-12-02T20:15:08.386Z,6.40
2022-12-02T20:17:46.516Z,5.57
2022-12-02T20:20:27.429Z,5.93
2022-12-02T20:22:59.605Z,5.55
2022-12-02T20:25:51.700Z,5.43
2022-12-02T20:31:55.719Z,5.28
2022-12-02T20:34:32.920Z,7.03
2022-12-02T20:37:04.560Z,6.22
2022-12-02T20:39:34.288Z,4.80
2022-12-02T20:42:07.109Z,5.28
2022-12-02T20:44:37.144Z,5.53
2022-12-02T20:47:14.126Z,5.03
2022-12-02T20:49:47.868Z,4.47
2022-12-02T20:52:21.583Z,5.40
2022-12-02T20:54:51.960Z,5.38
2022-12-02T20:57:28.982Z,5.05
2022-12-02T21:00:08.832Z,5.50
2022-12-02T21:03:03.843Z,5.28
2022-12-02T21:05:42.748Z,5.07
2022-12-02T21:08:17.274Z,6.13
2022-12-02T21:10:50.532Z,5.25
2022-12-02T21:13:24.856Z,4.75
2022-12-02T21:16:05.205Z,4.70
2022-12-02T21:18:38.582Z,4.80
2022-12-02T21:21:15.614Z,6.50
2022-12-02T21:23:50.444Z,5.13
2022-12-02T21:26:25.472Z,4.35
2022-12-02T21:28:59.920Z,5.03
2022-12-02T21:31:49.762Z,4.68
2022-12-02T21:34:22.901Z,5.07
2022-12-02T21:36:56.469Z,4.60
2022-12-02T21:39:28.591Z,4.47
2022-12-02T23:49:34.147Z,4.80
2022-12-02T23:52:03.547Z,4.65
2022-12-02T23:54:32.571Z,5.10
2022-12-02T23:57:01.924Z,5.18
2022-12-02T23:59:31.561Z,4.53
